createdAt,value
2019-04-30T05:42:49.791Z,0
2019-04-30T05:48:22.787Z,0
2019-04-30T06:21:43.050Z,0
2019-04-30T06:27:15.601Z,0
2019-04-30T06:38:21.793Z,0
2019-04-30T06:43:54.355Z,0
2019-04-30T06:49:28.746Z,0
2019-04-30T06:54:59.740Z,0
2019-04-30T07:00:33.528Z,0
2019-04-30T07:06:05.830Z,0
2019-04-30T07:11:39.163Z,0
2019-04-30T07:17:10.841Z,0
2019-04-30T07:22:49.582Z,0
2019-04-30T07:28:16.515Z,0
2019-04-30T07:39:29.158Z,0
2019-04-30T07:45:00.401Z,0
2019-04-30T07:50:32.248Z,11.9
2019-04-30T07:56:21.905Z,13.2
2019-04-30T08:02:00.179Z,13.2
2019-04-30T08:07:15.410Z,15.6
2019-04-30T08:12:51.006Z,16.8
2019-04-30T08:18:24.958Z,15.6
2019-04-30T08:24:01.058Z,15.6
2019-04-30T08:29:34.098Z,22.8
2019-04-30T08:35:09.797Z,20.4
2019-04-30T08:40:53.998Z,22.8
2019-04-30T08:46:18.983Z,20.4
2019-04-30T09:19:52.515Z,21.5
2019-04-30T09:25:28.657Z,21.5
2019-04-30T09:31:02.086Z,16.8
2019-04-30T09:36:36.634Z,22.8
2019-04-30T09:42:11.372Z,19.2
2019-04-30T09:47:46.303Z,19.2
2019-04-30T09:53:20.539Z,18
2019-04-30T09:58:54.683Z,20.4
2019-04-30T10:04:30.123Z,20.4
2019-04-30T10:10:03.509Z,20.4
2019-04-30T10:15:38.150Z,21.5
2019-04-30T10:21:12.658Z,21.5
2019-04-30T10:26:47.383Z,21.5
2019-04-30T10:32:21.993Z,22.8
2019-04-30T10:37:56.628Z,20.4
2019-04-30T10:43:31.980Z,25.1
2019-04-30T10:49:05.924Z,23.9
2019-04-30T10:54:40.462Z,22.8
2019-04-30T11:00:15.013Z,20.4
2019-04-30T11:11:25.213Z,21.5
2019-04-30T11:17:00.205Z,23.9
2019-04-30T11:22:34.367Z,20.4
2019-04-30T11:33:45.086Z,19.2
2019-04-30T11:39:20.144Z,20.4
2019-04-30T11:44:55.294Z,19.2
2019-04-30T11:50:30.526Z,18
2019-04-30T11:56:05.624Z,23.9
2019-04-30T12:01:40.751Z,19.2
2019-04-30T12:07:16.131Z,11.9
2019-04-30T12:12:51.470Z,14.4
2019-04-30T12:18:26.722Z,22.8
2019-04-30T12:24:02.090Z,20.4
2019-04-30T12:29:39.545Z,22.8
2019-04-30T12:35:12.904Z,20.4
2019-04-30T12:40:48.253Z,22.8
2019-04-30T12:46:23.345Z,20.4
2019-04-30T12:51:58.772Z,22.8
2019-04-30T12:57:33.029Z,25.1
2019-04-30T13:03:07.752Z,25.1
2019-04-30T13:08:42.770Z,22.8
2019-04-30T13:14:19.313Z,23.9
2019-04-30T13:19:51.485Z,22.8
2019-04-30T13:25:30.797Z,20.4
2019-04-30T13:31:00.736Z,14.4
2019-04-30T13:36:35.363Z,26.4
2019-04-30T13:42:17.376Z,15.6
2019-04-30T13:47:44.605Z,20.4
2019-04-30T13:53:19.218Z,16.8
2019-04-30T13:58:53.852Z,16.8
2019-04-30T14:04:28.598Z,14.4
2019-04-30T14:10:03.575Z,18
2019-04-30T14:15:39.008Z,18
2019-04-30T14:21:14.446Z,19.2
2019-04-30T14:26:49.722Z,25.1
2019-04-30T14:32:24.812Z,16.8
2019-04-30T14:37:59.963Z,22.8
2019-04-30T14:43:35.143Z,20.4
2019-04-30T14:49:12.756Z,22.8
2019-04-30T14:54:45.610Z,19.2
2019-04-30T15:00:21.070Z,21.5
2019-04-30T15:05:58.827Z,25.1
2019-04-30T15:11:32.393Z,28.8
2019-04-30T15:17:07.503Z,26.4
2019-04-30T15:22:42.279Z,23.9
2019-04-30T15:28:16.839Z,27.6
2019-04-30T15:34:02.169Z,26.4
2019-04-30T15:39:25.919Z,23.9
2019-04-30T15:50:36.238Z,22.8
2019-04-30T15:56:11.170Z,25.1
2019-04-30T16:01:46.446Z,19.2
2019-04-30T16:07:21.726Z,18
2019-04-30T16:12:58.863Z,21.5
2019-04-30T16:18:32.721Z,15.6
2019-04-30T16:24:08.718Z,20.4
2019-04-30T16:29:44.246Z,18
2019-04-30T16:35:19.877Z,15.6
2019-04-30T16:40:55.453Z,18
2019-04-30T17:08:56.772Z,16.8
2019-04-30T17:14:32.333Z,13.2
2019-04-30T17:31:20.654Z,15.6
2019-04-30T17:36:55.661Z,16.8
2019-04-30T17:42:30.360Z,14.4
2019-04-30T17:48:05.639Z,13.2
2019-04-30T17:53:40.915Z,8.4
2019-04-30T17:59:15.706Z,10.7
2019-04-30T18:10:24.898Z,13.2
2019-04-30T18:16:00.409Z,11.9
2019-04-30T18:21:33.481Z,13.2
2019-04-30T18:27:07.564Z,9.6
2019-04-30T18:32:41.395Z,10.7
2019-04-30T18:38:17.565Z,10.7
2019-04-30T18:43:49.038Z,9.6
2019-04-30T18:49:22.745Z,9.6
2019-04-30T18:54:56.447Z,8.4
2019-04-30T19:00:30.061Z,9.6
2019-04-30T19:17:11.102Z,0
2019-04-30T19:22:43.799Z,0
2019-04-30T19:33:50.308Z,0
2019-04-30T19:39:23.014Z,0
2019-04-30T19:45:00.714Z,0
2019-04-30T19:50:28.388Z,0
2019-04-30T19:56:00.935Z,0
2019-04-30T20:01:33.497Z,0
2019-04-30T20:07:06.053Z,0
2019-04-30T20:12:38.891Z,0
2019-04-30T20:18:11.241Z,0
